sensor_id;sensor_type;location;lat;lon;timestamp;P1;durP1;ratioP1;P2;durP2;ratioP2
920;SDS011;447;51.332;6.778;2022-11-15T00:01:56;5.40;;;4.60;;
920;SDS011;447;51.332;6.778;2022-11-15T00:04:42;5.73;;;5.00;;
920;SDS011;447;51.332;6.778;2022-11-15T00:07:29;5.60;;;3.80;;
920;SDS011;447;51.332;6.778;2022-11-15T00:10:16;6.50;;;5.10;;
920;SDS011;447;51.332;6.778;2022-11-15T00:13:07;5.60;;;4.93;;
920;SDS011;447;51.332;6.778;2022-11-15T00:15:58;5.30;;;4.33;;
920;SDS011;447;51.332;6.778;2022-11-15T00:18:48;5.43;;;4.00;;
920;SDS011;447;51.332;6.778;2022-11-15T00:21:38;5.47;;;4.40;;
920;SDS011;447;51.332;6.778;2022-11-15T00:24:22;5.80;;;5.17;;
920;SDS011;447;51.332;6.778;2022-11-15T00:27:07;6.03;;;4.43;;
920;SDS011;447;51.332;6.778;2022-11-15T00:29:57;5.63;;;4.20;;
920;SDS011;447;51.332;6.778;2022-11-15T00:32:41;6.50;;;4.90;;
920;SDS011;447;51.332;6.778;2022-11-15T00:35:25;5.30;;;3.97;;
920;SDS011;447;51.332;6.778;2022-11-15T00:38:25;5.47;;;4.50;;
920;SDS011;447;51.332;6.778;2022-11-15T00:41:16;7.23;;;5.03;;
920;SDS011;447;51.332;6.778;2022-11-15T00:44:00;4.97;;;4.10;;
920;SDS011;447;51.332;6.778;2022-11-15T00:46:45;5.93;;;4.43;;
920;SDS011;447;51.332;6.778;2022-11-15T00:49:31;6.30;;;4.30;;
920;SDS011;447;51.332;6.778;2022-11-15T00:52:16;5.73;;;4.00;;
920;SDS011;447;51.332;6.778;2022-11-15T00:55:03;6.77;;;4.67;;
920;SDS011;447;51.332;6.778;2022-11-15T00:57:48;7.87;;;4.80;;
920;SDS011;447;51.332;6.778;2022-11-15T01:00:33;8.40;;;4.57;;
920;SDS011;447;51.332;6.778;2022-11-15T01:03:17;5.60;;;4.30;;
920;SDS011;447;51.332;6.778;2022-11-15T01:06:04;5.03;;;4.40;;
920;SDS011;447;51.332;6.778;2022-11-15T01:08:55;4.77;;;4.23;;
920;SDS011;447;51.332;6.778;2022-11-15T01:11:40;5.47;;;4.17;;
920;SDS011;447;51.332;6.778;2022-11-15T01:14:24;6.77;;;4.53;;
920;SDS011;447;51.332;6.778;2022-11-15T01:17:09;6.80;;;4.70;;
920;SDS011;447;51.332;6.778;2022-11-15T01:19:53;5.70;;;4.30;;
920;SDS011;447;51.332;6.778;2022-11-15T01:22:38;6.90;;;4.80;;
920;SDS011;447;51.332;6.778;2022-11-15T01:25:22;7.53;;;4.47;;
920;SDS011;447;51.332;6.778;2022-11-15T01:28:09;4.77;;;3.97;;
920;SDS011;447;51.332;6.778;2022-11-15T01:31:00;5.77;;;5.07;;
920;SDS011;447;51.332;6.778;2022-11-15T01:33:52;4.40;;;4.00;;
920;SDS011;447;51.332;6.778;2022-11-15T01:36:36;5.97;;;4.53;;
920;SDS011;447;51.332;6.778;2022-11-15T01:39:23;4.70;;;4.07;;
920;SDS011;447;51.332;6.778;2022-11-15T01:42:11;5.70;;;4.00;;
920;SDS011;447;51.332;6.778;2022-11-15T01:44:59;5.60;;;4.67;;
920;SDS011;447;51.332;6.778;2022-11-15T01:47:48;6.47;;;4.40;;
920;SDS011;447;51.332;6.778;2022-11-15T01:50:39;4.67;;;3.97;;
920;SDS011;447;51.332;6.778;2022-11-15T01:53:26;4.77;;;3.80;;
920;SDS011;447;51.332;6.778;2022-11-15T01:56:13;5.07;;;4.37;;
920;SDS011;447;51.332;6.778;2022-11-15T01:59:03;4.77;;;4.27;;
920;SDS011;447;51.332;6.778;2022-11-15T02:01:52;8.30;;;4.80;;
920;SDS011;447;51.332;6.778;2022-11-15T02:04:43;4.83;;;4.10;;
920;SDS011;447;51.332;6.778;2022-11-15T02:07:34;4.77;;;4.23;;
920;SDS011;447;51.332;6.778;2022-11-15T02:10:21;5.70;;;4.00;;
920;SDS011;447;51.332;6.778;2022-11-15T02:13:07;5.20;;;3.80;;
920;SDS011;447;51.332;6.778;2022-11-15T02:22:31;5.60;;;3.93;;
920;SDS011;447;51.332;6.778;2022-11-15T02:25:57;5.47;;;4.20;;
920;SDS011;447;51.332;6.778;2022-11-15T02:29:07;4.33;;;3.93;;
920;SDS011;447;51.332;6.778;2022-11-15T02:41:39;6.13;;;3.70;;
920;SDS011;447;51.332;6.778;2022-11-15T02:44:37;6.63;;;4.00;;
920;SDS011;447;51.332;6.778;2022-11-15T02:47:27;6.10;;;3.53;;
920;SDS011;447;51.332;6.778;2022-11-15T02:50:18;4.80;;;4.30;;
920;SDS011;447;51.332;6.778;2022-11-15T02:53:10;5.10;;;4.00;;
920;SDS011;447;51.332;6.778;2022-11-15T02:55:54;6.73;;;4.20;;
920;SDS011;447;51.332;6.778;2022-11-15T03:01:51;4.60;;;3.60;;
920;SDS011;447;51.332;6.778;2022-11-15T03:05:01;7.63;;;4.67;;
920;SDS011;447;51.332;6.778;2022-11-15T03:08:06;7.37;;;4.30;;
920;SDS011;447;51.332;6.778;2022-11-15T03:11:11;5.73;;;4.40;;
920;SDS011;447;51.332;6.778;2022-11-15T03:17:15;7.20;;;4.70;;
920;SDS011;447;51.332;6.778;2022-11-15T03:20:10;5.83;;;4.43;;
920;SDS011;447;51.332;6.778;2022-11-15T03:23:01;4.50;;;4.10;;
920;SDS011;447;51.332;6.778;2022-11-15T03:25:57;4.90;;;3.87;;
920;SDS011;447;51.332;6.778;2022-11-15T03:28:57;5.33;;;4.30;;
920;SDS011;447;51.332;6.778;2022-11-15T03:32:03;7.87;;;4.50;;
920;SDS011;447;51.332;6.778;2022-11-15T03:34:57;5.97;;;4.60;;
920;SDS011;447;51.332;6.778;2022-11-15T03:40:58;4.43;;;4.03;;
920;SDS011;447;51.332;6.778;2022-11-15T03:43:57;5.20;;;4.40;;
920;SDS011;447;51.332;6.778;2022-11-15T03:46:55;6.43;;;4.20;;
920;SDS011;447;51.332;6.778;2022-11-15T03:49:46;6.40;;;3.60;;
920;SDS011;447;51.332;6.778;2022-11-15T03:52:36;5.40;;;4.20;;
920;SDS011;447;51.332;6.778;2022-11-15T03:55:24;5.57;;;4.60;;
920;SDS011;447;51.332;6.778;2022-11-15T03:58:08;6.40;;;4.93;;
920;SDS011;447;51.332;6.778;2022-11-15T04:00:58;6.50;;;4.30;;
920;SDS011;447;51.332;6.778;2022-11-15T04:03:45;6.03;;;5.10;;
920;SDS011;447;51.332;6.778;2022-11-15T04:06:34;5.40;;;4.57;;
920;SDS011;447;51.332;6.778;2022-11-15T04:09:19;6.90;;;4.07;;
920;SDS011;447;51.332;6.778;2022-11-15T04:12:06;5.57;;;4.80;;
920;SDS011;447;51.332;6.778;2022-11-15T04:14:50;5.00;;;4.17;;
920;SDS011;447;51.332;6.778;2022-11-15T04:17:54;6.03;;;4.97;;
920;SDS011;447;51.332;6.778;2022-11-15T04:20:43;5.30;;;4.50;;
920;SDS011;447;51.332;6.778;2022-11-15T04:23:46;5.50;;;4.50;;
920;SDS011;447;51.332;6.778;2022-11-15T04:26:49;7.43;;;4.80;;
920;SDS011;447;51.332;6.778;2022-11-15T04:29:38;4.97;;;4.03;;
920;SDS011;447;51.332;6.778;2022-11-15T04:32:32;5.10;;;4.20;;
920;SDS011;447;51.332;6.778;2022-11-15T04:35:17;5.53;;;4.20;;
920;SDS011;447;51.332;6.778;2022-11-15T04:38:06;5.90;;;4.33;;
920;SDS011;447;51.332;6.778;2022-11-15T04:40:54;7.20;;;5.30;;
920;SDS011;447;51.332;6.778;2022-11-15T04:43:41;5.77;;;4.37;;
920;SDS011;447;51.332;6.778;2022-11-15T04:46:25;4.70;;;4.17;;
920;SDS011;447;51.332;6.778;2022-11-15T04:49:13;5.40;;;4.13;;
920;SDS011;447;51.332;6.778;2022-11-15T04:51:57;5.03;;;4.50;;
920;SDS011;447;51.332;6.778;2022-11-15T04:54:48;5.70;;;4.10;;
920;SDS011;447;51.332;6.778;2022-11-15T04:57:33;5.77;;;5.17;;
920;SDS011;447;51.332;6.778;2022-11-15T05:00:20;4.77;;;4.30;;
920;SDS011;447;51.332;6.778;2022-11-15T05:03:08;5.93;;;4.27;;
920;SDS011;447;51.332;6.778;2022-11-15T05:06:12;5.30;;;3.87;;
920;SDS011;447;51.332;6.778;2022-11-15T05:08:56;6.50;;;3.93;;
920;SDS011;447;51.332;6.778;2022-11-15T05:11:44;4.10;;;3.70;;
920;SDS011;447;51.332;6.778;2022-11-15T05:14:31;4.90;;;4.07;;
920;SDS011;447;51.332;6.778;2022-11-15T05:17:17;5.20;;;3.90;;
920;SDS011;447;51.332;6.778;2022-11-15T05:20:03;5.47;;;4.30;;
920;SDS011;447;51.332;6.778;2022-11-15T05:22:51;6.77;;;4.50;;
920;SDS011;447;51.332;6.778;2022-11-15T05:25:40;4.33;;;3.80;;
920;SDS011;447;51.332;6.778;2022-11-15T05:28:27;6.17;;;4.07;;
920;SDS011;447;51.332;6.778;2022-11-15T05:31:38;4.57;;;4.03;;
920;SDS011;447;51.332;6.778;2022-11-15T05:34:25;5.37;;;4.03;;
920;SDS011;447;51.332;6.778;2022-11-15T05:37:10;5.50;;;4.67;;
920;SDS011;447;51.332;6.778;2022-11-15T05:39:55;4.33;;;3.93;;
920;SDS011;447;51.332;6.778;2022-11-15T05:42:42;5.00;;;4.30;;
920;SDS011;447;51.332;6.778;2022-11-15T05:45:27;4.80;;;4.20;;
920;SDS011;447;51.332;6.778;2022-11-15T05:48:14;6.37;;;4.93;;
920;SDS011;447;51.332;6.778;2022-11-15T05:51:02;5.87;;;4.07;;
920;SDS011;447;51.332;6.778;2022-11-15T05:53:48;6.17;;;4.20;;
920;SDS011;447;51.332;6.778;2022-11-15T05:56:38;7.10;;;4.40;;
920;SDS011;447;51.332;6.778;2022-11-15T05:59:25;4.47;;;4.07;;
920;SDS011;447;51.332;6.778;2022-11-15T06:02:13;5.30;;;3.87;;
920;SDS011;447;51.332;6.778;2022-11-15T06:05:00;4.73;;;4.20;;
920;SDS011;447;51.332;6.778;2022-11-15T06:07:45;4.80;;;4.37;;
920;SDS011;447;51.332;6.778;2022-11-15T06:10:35;5.40;;;4.20;;
920;SDS011;447;51.332;6.778;2022-11-15T06:13:19;4.70;;;3.87;;
920;SDS011;447;51.332;6.778;2022-11-15T06:16:09;6.07;;;4.30;;
920;SDS011;447;51.332;6.778;2022-11-15T06:18:56;6.00;;;4.77;;
920;SDS011;447;51.332;6.778;2022-11-15T06:21:43;6.20;;;4.50;;
920;SDS011;447;51.332;6.778;2022-11-15T06:24:30;9.80;;;4.70;;
920;SDS011;447;51.332;6.778;2022-11-15T06:27:15;4.90;;;4.10;;
920;SDS011;447;51.332;6.778;2022-11-15T06:29:59;6.03;;;4.40;;
920;SDS011;447;51.332;6.778;2022-11-15T06:32:46;5.07;;;4.50;;
920;SDS011;447;51.332;6.778;2022-11-15T06:35:32;5.40;;;4.20;;
920;SDS011;447;51.332;6.778;2022-11-15T06:38:20;5.50;;;4.10;;
920;SDS011;447;51.332;6.778;2022-11-15T06:41:08;6.43;;;4.73;;
920;SDS011;447;51.332;6.778;2022-11-15T06:43:53;4.57;;;4.10;;
920;SDS011;447;51.332;6.778;2022-11-15T06:46:38;5.50;;;4.10;;
920;SDS011;447;51.332;6.778;2022-11-15T06:49:22;5.10;;;4.60;;
920;SDS011;447;51.332;6.778;2022-11-15T06:52:07;4.73;;;4.17;;
920;SDS011;447;51.332;6.778;2022-11-15T06:54:53;5.73;;;4.73;;
920;SDS011;447;51.332;6.778;2022-11-15T06:57:42;4.33;;;3.93;;
920;SDS011;447;51.332;6.778;2022-11-15T07:00:30;5.20;;;4.43;;
920;SDS011;447;51.332;6.778;2022-11-15T07:03:15;5.23;;;4.10;;
920;SDS011;447;51.332;6.778;2022-11-15T07:06:00;4.50;;;3.83;;
920;SDS011;447;51.332;6.778;2022-11-15T07:09:03;3.93;;;3.53;;
920;SDS011;447;51.332;6.778;2022-11-15T07:11:48;4.50;;;4.10;;
920;SDS011;447;51.332;6.778;2022-11-15T07:14:32;5.43;;;3.97;;
920;SDS011;447;51.332;6.778;2022-11-15T07:17:16;6.13;;;4.73;;
920;SDS011;447;51.332;6.778;2022-11-15T07:20:01;4.87;;;3.77;;
920;SDS011;447;51.332;6.778;2022-11-15T07:22:46;4.97;;;3.93;;
920;SDS011;447;51.332;6.778;2022-11-15T07:25:31;5.67;;;3.60;;
920;SDS011;447;51.332;6.778;2022-11-15T07:28:16;4.23;;;3.80;;
920;SDS011;447;51.332;6.778;2022-11-15T07:31:06;4.30;;;3.50;;
920;SDS011;447;51.332;6.778;2022-11-15T07:33:52;3.63;;;3.33;;
920;SDS011;447;51.332;6.778;2022-11-15T07:36:36;5.87;;;4.20;;
920;SDS011;447;51.332;6.778;2022-11-15T07:39:21;4.20;;;3.67;;
920;SDS011;447;51.332;6.778;2022-11-15T07:42:08;5.20;;;4.00;;
920;SDS011;447;51.332;6.778;2022-11-15T07:45:11;5.60;;;4.00;;
920;SDS011;447;51.332;6.778;2022-11-15T07:47:55;5.70;;;3.47;;
920;SDS011;447;51.332;6.778;2022-11-15T07:50:41;4.00;;;3.60;;
920;SDS011;447;51.332;6.778;2022-11-15T07:53:29;4.50;;;3.80;;
920;SDS011;447;51.332;6.778;2022-11-15T07:56:16;3.90;;;3.10;;
920;SDS011;447;51.332;6.778;2022-11-15T07:59:01;4.87;;;3.60;;
920;SDS011;447;51.332;6.778;2022-11-15T08:01:45;5.70;;;3.67;;
920;SDS011;447;51.332;6.778;2022-11-15T08:04:31;4.50;;;3.90;;
920;SDS011;447;51.332;6.778;2022-11-15T08:07:15;5.27;;;3.50;;
920;SDS011;447;51.332;6.778;2022-11-15T08:10:01;4.33;;;3.57;;
920;SDS011;447;51.332;6.778;2022-11-15T08:13:04;3.80;;;3.40;;
920;SDS011;447;51.332;6.778;2022-11-15T08:15:51;3.80;;;3.20;;
920;SDS011;447;51.332;6.778;2022-11-15T08:18:38;3.20;;;2.90;;
920;SDS011;447;51.332;6.778;2022-11-15T08:21:22;3.27;;;2.80;;
920;SDS011;447;51.332;6.778;2022-11-15T08:24:08;4.70;;;2.93;;
920;SDS011;447;51.332;6.778;2022-11-15T08:26:55;3.83;;;3.10;;
920;SDS011;447;51.332;6.778;2022-11-15T08:29:42;5.63;;;3.10;;
920;SDS011;447;51.332;6.778;2022-11-15T08:32:27;3.00;;;2.70;;
920;SDS011;447;51.332;6.778;2022-11-15T08:35:12;4.40;;;2.80;;
920;SDS011;447;51.332;6.778;2022-11-15T08:37:56;2.83;;;2.63;;
920;SDS011;447;51.332;6.778;2022-11-15T08:40:41;2.90;;;2.60;;
920;SDS011;447;51.332;6.778;2022-11-15T08:43:25;3.87;;;3.47;;
920;SDS011;447;51.332;6.778;2022-11-15T08:46:11;3.30;;;2.70;;
920;SDS011;447;51.332;6.778;2022-11-15T08:48:58;3.43;;;3.13;;
920;SDS011;447;51.332;6.778;2022-11-15T08:51:42;3.30;;;3.00;;
920;SDS011;447;51.332;6.778;2022-11-15T08:54:42;3.17;;;2.73;;
920;SDS011;447;51.332;6.778;2022-11-15T08:57:29;2.67;;;2.47;;
920;SDS011;447;51.332;6.778;2022-11-15T09:00:14;4.10;;;2.80;;
920;SDS011;447;51.332;6.778;2022-11-15T09:03:06;4.17;;;2.83;;
920;SDS011;447;51.332;6.778;2022-11-15T09:05:57;4.90;;;3.00;;
920;SDS011;447;51.332;6.778;2022-11-15T09:08:43;3.33;;;2.40;;
920;SDS011;447;51.332;6.778;2022-11-15T09:11:27;4.90;;;3.00;;
920;SDS011;447;51.332;6.778;2022-11-15T09:14:13;3.10;;;2.30;;
920;SDS011;447;51.332;6.778;2022-11-15T09:16:58;5.03;;;4.07;;
920;SDS011;447;51.332;6.778;2022-11-15T09:19:43;6.10;;;2.07;;
920;SDS011;447;51.332;6.778;2022-11-15T09:22:29;3.97;;;2.63;;
920;SDS011;447;51.332;6.778;2022-11-15T09:25:14;3.43;;;2.70;;
920;SDS011;447;51.332;6.778;2022-11-15T09:27:59;3.17;;;2.57;;
920;SDS011;447;51.332;6.778;2022-11-15T09:30:44;2.80;;;2.43;;
920;SDS011;447;51.332;6.778;2022-11-15T09:33:28;3.33;;;2.80;;
920;SDS011;447;51.332;6.778;2022-11-15T09:36:13;3.33;;;2.20;;
920;SDS011;447;51.332;6.778;2022-11-15T09:38:58;2.93;;;2.63;;
920;SDS011;447;51.332;6.778;2022-11-15T09:48:10;2.70;;;2.40;;
920;SDS011;447;51.332;6.778;2022-11-15T09:51:13;2.20;;;2.00;;
920;SDS011;447;51.332;6.778;2022-11-15T09:54:03;3.17;;;2.73;;
920;SDS011;447;51.332;6.778;2022-11-15T09:56:41;2.50;;;2.30;;
920;SDS011;447;51.332;6.778;2022-11-15T10:01:41;2.73;;;2.27;;
920;SDS011;447;51.332;6.778;2022-11-15T10:04:18;2.80;;;2.07;;
920;SDS011;447;51.332;6.778;2022-11-15T10:06:47;3.10;;;1.83;;
920;SDS011;447;51.332;6.778;2022-11-15T10:09:28;2.50;;;2.10;;
920;SDS011;447;51.332;6.778;2022-11-15T10:12:17;3.17;;;2.20;;
920;SDS011;447;51.332;6.778;2022-11-15T10:14:43;4.70;;;2.33;;
920;SDS011;447;51.332;6.778;2022-11-15T10:20:08;2.40;;;1.80;;
920;SDS011;447;51.332;6.778;2022-11-15T10:22:45;2.60;;;2.10;;
920;SDS011;447;51.332;6.778;2022-11-15T10:27:47;2.47;;;1.53;;
920;SDS011;447;51.332;6.778;2022-11-15T10:30:37;9.67;;;2.00;;
920;SDS011;447;51.332;6.778;2022-11-15T10:33:13;2.70;;;1.90;;
920;SDS011;447;51.332;6.778;2022-11-15T10:35:44;2.83;;;1.70;;
920;SDS011;447;51.332;6.778;2022-11-15T10:38:10;2.73;;;2.13;;
920;SDS011;447;51.332;6.778;2022-11-15T10:40:40;2.67;;;1.93;;
920;SDS011;447;51.332;6.778;2022-11-15T10:45:42;1.63;;;1.53;;
920;SDS011;447;51.332;6.778;2022-11-15T10:50:52;2.33;;;2.10;;
920;SDS011;447;51.332;6.778;2022-11-15T10:55:48;2.57;;;1.73;;
920;SDS011;447;51.332;6.778;2022-11-15T11:01:09;3.07;;;1.77;;
920;SDS011;447;51.332;6.778;2022-11-15T11:03:36;3.80;;;1.83;;
920;SDS011;447;51.332;6.778;2022-11-15T11:06:17;6.23;;;1.60;;
920;SDS011;447;51.332;6.778;2022-11-15T11:08:55;3.67;;;2.00;;
920;SDS011;447;51.332;6.778;2022-11-15T11:11:52;3.13;;;1.60;;
920;SDS011;447;51.332;6.778;2022-11-15T11:16:53;2.97;;;1.70;;
920;SDS011;447;51.332;6.778;2022-11-15T11:47:49;2.57;;;1.50;;
920;SDS011;447;51.332;6.778;2022-11-15T11:50:23;4.80;;;1.60;;
920;SDS011;447;51.332;6.778;2022-11-15T11:53:03;1.70;;;1.30;;
920;SDS011;447;51.332;6.778;2022-11-15T11:55:40;2.10;;;1.20;;
920;SDS011;447;51.332;6.778;2022-11-15T12:00:55;2.60;;;1.60;;
920;SDS011;447;51.332;6.778;2022-11-15T12:06:26;3.67;;;1.60;;
920;SDS011;447;51.332;6.778;2022-11-15T12:14:04;2.83;;;1.47;;
920;SDS011;447;51.332;6.778;2022-11-15T12:16:40;1.50;;;1.10;;
920;SDS011;447;51.332;6.778;2022-11-15T12:19:09;1.47;;;1.20;;
920;SDS011;447;51.332;6.778;2022-11-15T12:22:32;1.50;;;1.03;;
920;SDS011;447;51.332;6.778;2022-11-15T12:24:53;2.53;;;1.20;;
920;SDS011;447;51.332;6.778;2022-11-15T12:27:41;2.03;;;1.20;;
920;SDS011;447;51.332;6.778;2022-11-15T12:30:13;2.80;;;1.20;;
920;SDS011;447;51.332;6.778;2022-11-15T12:32:54;4.57;;;1.43;;
920;SDS011;447;51.332;6.778;2022-11-15T12:35:36;1.60;;;0.90;;
920;SDS011;447;51.332;6.778;2022-11-15T12:38:08;1.63;;;1.40;;
920;SDS011;447;51.332;6.778;2022-11-15T12:40:37;2.00;;;1.17;;
920;SDS011;447;51.332;6.778;2022-11-15T12:45:42;1.40;;;0.90;;
920;SDS011;447;51.332;6.778;2022-11-15T13:06:52;1.50;;;1.20;;
920;SDS011;447;51.332;6.778;2022-11-15T13:12:09;2.17;;;1.10;;
920;SDS011;447;51.332;6.778;2022-11-15T13:14:59;2.07;;;1.30;;
920;SDS011;447;51.332;6.778;2022-11-15T13:17:46;2.27;;;1.10;;
920;SDS011;447;51.332;6.778;2022-11-15T13:23:24;2.50;;;1.10;;
920;SDS011;447;51.332;6.778;2022-11-15T13:28:24;1.80;;;1.30;;
920;SDS011;447;51.332;6.778;2022-11-15T13:30:58;1.77;;;1.13;;
920;SDS011;447;51.332;6.778;2022-11-15T13:33:36;1.87;;;1.40;;
920;SDS011;447;51.332;6.778;2022-11-15T13:36:09;2.00;;;1.03;;
920;SDS011;447;51.332;6.778;2022-11-15T13:38:43;1.30;;;1.00;;
920;SDS011;447;51.332;6.778;2022-11-15T13:41:20;4.07;;;1.27;;
920;SDS011;447;51.332;6.778;2022-11-15T13:43:50;5.50;;;1.33;;
920;SDS011;447;51.332;6.778;2022-11-15T13:46:21;3.83;;;1.77;;
920;SDS011;447;51.332;6.778;2022-11-15T13:48:56;6.37;;;1.20;;
920;SDS011;447;51.332;6.778;2022-11-15T13:56:59;1.67;;;1.10;;
920;SDS011;447;51.332;6.778;2022-11-15T14:02:18;5.50;;;1.33;;
920;SDS011;447;51.332;6.778;2022-11-15T14:04:53;1.70;;;1.00;;
920;SDS011;447;51.332;6.778;2022-11-15T14:07:27;4.10;;;1.60;;
920;SDS011;447;51.332;6.778;2022-11-15T14:09:56;1.23;;;0.90;;
920;SDS011;447;51.332;6.778;2022-11-15T14:12:49;1.77;;;1.20;;
920;SDS011;447;51.332;6.778;2022-11-15T14:15:24;2.07;;;1.30;;
920;SDS011;447;51.332;6.778;2022-11-15T14:17:56;4.00;;;2.00;;
920;SDS011;447;51.332;6.778;2022-11-15T14:20:38;2.83;;;0.93;;
920;SDS011;447;51.332;6.778;2022-11-15T14:25:51;2.20;;;1.10;;
920;SDS011;447;51.332;6.778;2022-11-15T14:30:50;2.57;;;1.20;;
920;SDS011;447;51.332;6.778;2022-11-15T14:35:56;2.30;;;1.33;;
920;SDS011;447;51.332;6.778;2022-11-15T14:38:56;2.23;;;1.70;;
920;SDS011;447;51.332;6.778;2022-11-15T14:41:24;1.70;;;1.43;;
920;SDS011;447;51.332;6.778;2022-11-15T14:44:00;2.33;;;1.13;;
920;SDS011;447;51.332;6.778;2022-11-15T14:46:28;1.93;;;1.23;;
920;SDS011;447;51.332;6.778;2022-11-15T14:48:55;1.90;;;1.37;;
920;SDS011;447;51.332;6.778;2022-11-15T14:51:21;2.20;;;1.33;;
920;SDS011;447;51.332;6.778;2022-11-15T14:53:47;3.00;;;1.30;;
920;SDS011;447;51.332;6.778;2022-11-15T14:56:18;2.97;;;1.50;;
920;SDS011;447;51.332;6.778;2022-11-15T14:58:46;2.70;;;1.33;;
920;SDS011;447;51.332;6.778;2022-11-15T15:01:13;2.03;;;1.47;;
920;SDS011;447;51.332;6.778;2022-11-15T15:03:44;2.07;;;1.50;;
920;SDS011;447;51.332;6.778;2022-11-15T15:06:16;3.83;;;1.60;;
920;SDS011;447;51.332;6.778;2022-11-15T15:08:42;3.27;;;1.93;;
920;SDS011;447;51.332;6.778;2022-11-15T15:11:16;2.47;;;1.43;;
920;SDS011;447;51.332;6.778;2022-11-15T15:13:50;3.57;;;1.50;;
920;SDS011;447;51.332;6.778;2022-11-15T15:16:20;2.40;;;1.97;;
920;SDS011;447;51.332;6.778;2022-11-15T15:18:52;2.80;;;1.80;;
920;SDS011;447;51.332;6.778;2022-11-15T15:21:24;1.77;;;1.57;;
920;SDS011;447;51.332;6.778;2022-11-15T15:23:58;2.83;;;1.40;;
920;SDS011;447;51.332;6.778;2022-11-15T15:26:24;2.70;;;1.80;;
920;SDS011;447;51.332;6.778;2022-11-15T15:28:51;2.93;;;1.40;;
920;SDS011;447;51.332;6.778;2022-11-15T15:31:22;2.17;;;1.70;;
920;SDS011;447;51.332;6.778;2022-11-15T15:33:52;2.80;;;2.47;;
920;SDS011;447;51.332;6.778;2022-11-15T15:36:18;2.83;;;1.67;;
920;SDS011;447;51.332;6.778;2022-11-15T15:38:52;6.27;;;1.70;;
920;SDS011;447;51.332;6.778;2022-11-15T15:41:20;5.40;;;1.90;;
920;SDS011;447;51.332;6.778;2022-11-15T15:43:49;2.40;;;2.17;;
920;SDS011;447;51.332;6.778;2022-11-15T15:46:15;2.67;;;1.90;;
920;SDS011;447;51.332;6.778;2022-11-15T15:48:43;4.50;;;2.27;;
920;SDS011;447;51.332;6.778;2022-11-15T15:51:09;2.63;;;2.07;;
920;SDS011;447;51.332;6.778;2022-11-15T15:53:38;2.20;;;2.00;;
920;SDS011;447;51.332;6.778;2022-11-15T15:56:04;2.50;;;2.30;;
920;SDS011;447;51.332;6.778;2022-11-15T15:58:33;2.67;;;1.97;;
920;SDS011;447;51.332;6.778;2022-11-15T16:00:59;3.10;;;2.10;;
920;SDS011;447;51.332;6.778;2022-11-15T16:03:28;2.27;;;2.07;;
920;SDS011;447;51.332;6.778;2022-11-15T16:05:56;5.63;;;1.80;;
920;SDS011;447;51.332;6.778;2022-11-15T16:08:24;3.00;;;2.07;;
920;SDS011;447;51.332;6.778;2022-11-15T16:10:54;2.60;;;2.40;;
920;SDS011;447;51.332;6.778;2022-11-15T16:13:23;3.23;;;1.97;;
920;SDS011;447;51.332;6.778;2022-11-15T16:15:52;5.93;;;2.00;;
920;SDS011;447;51.332;6.778;2022-11-15T16:18:22;4.63;;;1.90;;
920;SDS011;447;51.332;6.778;2022-11-15T16:20:48;2.30;;;2.00;;
920;SDS011;447;51.332;6.778;2022-11-15T16:23:18;2.53;;;2.30;;
920;SDS011;447;51.332;6.778;2022-11-15T16:25:47;4.20;;;2.40;;
920;SDS011;447;51.332;6.778;2022-11-15T16:28:27;3.23;;;2.40;;
920;SDS011;447;51.332;6.778;2022-11-15T16:31:04;2.40;;;1.80;;
920;SDS011;447;51.332;6.778;2022-11-15T16:33:52;2.30;;;2.07;;
920;SDS011;447;51.332;6.778;2022-11-15T16:38:48;2.87;;;1.93;;
920;SDS011;447;51.332;6.778;2022-11-15T16:41:19;2.40;;;2.00;;
920;SDS011;447;51.332;6.778;2022-11-15T16:43:47;5.40;;;2.37;;
920;SDS011;447;51.332;6.778;2022-11-15T16:46:18;2.43;;;2.07;;
920;SDS011;447;51.332;6.778;2022-11-15T16:48:46;3.13;;;2.27;;
920;SDS011;447;51.332;6.778;2022-11-15T16:51:13;2.83;;;1.90;;
920;SDS011;447;51.332;6.778;2022-11-15T16:53:39;2.53;;;2.00;;
920;SDS011;447;51.332;6.778;2022-11-15T16:56:23;3.20;;;2.17;;
920;SDS011;447;51.332;6.778;2022-11-15T16:58:52;3.30;;;2.10;;
920;SDS011;447;51.332;6.778;2022-11-15T17:01:22;2.33;;;2.00;;
920;SDS011;447;51.332;6.778;2022-11-15T17:03:51;3.80;;;2.47;;
920;SDS011;447;51.332;6.778;2022-11-15T17:06:18;4.93;;;2.30;;
920;SDS011;447;51.332;6.778;2022-11-15T17:08:49;2.70;;;2.40;;
920;SDS011;447;51.332;6.778;2022-11-15T17:11:20;1.87;;;1.70;;
920;SDS011;447;51.332;6.778;2022-11-15T17:13:47;2.10;;;1.90;;
920;SDS011;447;51.332;6.778;2022-11-15T17:16:20;2.57;;;1.90;;
920;SDS011;447;51.332;6.778;2022-11-15T17:18:50;2.20;;;2.00;;
920;SDS011;447;51.332;6.778;2022-11-15T17:21:19;4.47;;;2.40;;
920;SDS011;447;51.332;6.778;2022-11-15T17:23:49;2.00;;;1.80;;
920;SDS011;447;51.332;6.778;2022-11-15T17:26:15;2.73;;;2.53;;
920;SDS011;447;51.332;6.778;2022-11-15T17:28:44;2.80;;;2.03;;
920;SDS011;447;51.332;6.778;2022-11-15T17:31:12;2.73;;;2.20;;
920;SDS011;447;51.332;6.778;2022-11-15T17:33:39;6.20;;;2.00;;
920;SDS011;447;51.332;6.778;2022-11-15T17:36:10;2.40;;;2.20;;
920;SDS011;447;51.332;6.778;2022-11-15T17:38:42;2.40;;;2.20;;
920;SDS011;447;51.332;6.778;2022-11-15T17:41:17;3.17;;;2.57;;
920;SDS011;447;51.332;6.778;2022-11-15T17:43:45;2.70;;;2.00;;
920;SDS011;447;51.332;6.778;2022-11-15T17:46:15;2.40;;;2.20;;
920;SDS011;447;51.332;6.778;2022-11-15T17:48:45;4.90;;;2.20;;
920;SDS011;447;51.332;6.778;2022-11-15T17:51:12;2.27;;;2.07;;
920;SDS011;447;51.332;6.778;2022-11-15T17:53:41;3.10;;;1.87;;
920;SDS011;447;51.332;6.778;2022-11-15T17:56:10;2.50;;;2.30;;
920;SDS011;447;51.332;6.778;2022-11-15T17:58:52;2.50;;;2.00;;
920;SDS011;447;51.332;6.778;2022-11-15T18:03:47;2.10;;;1.80;;
920;SDS011;447;51.332;6.778;2022-11-15T18:06:13;2.53;;;2.33;;
920;SDS011;447;51.332;6.778;2022-11-15T18:08:44;2.50;;;2.10;;
920;SDS011;447;51.332;6.778;2022-11-15T18:13:45;2.30;;;2.10;;
920;SDS011;447;51.332;6.778;2022-11-15T18:16:18;2.17;;;1.90;;
920;SDS011;447;51.332;6.778;2022-11-15T18:18:49;5.60;;;2.10;;
920;SDS011;447;51.332;6.778;2022-11-15T18:21:24;5.83;;;2.33;;
920;SDS011;447;51.332;6.778;2022-11-15T18:23:58;2.43;;;2.00;;
920;SDS011;447;51.332;6.778;2022-11-15T18:26:29;2.87;;;2.00;;
920;SDS011;447;51.332;6.778;2022-11-15T18:28:56;2.73;;;2.40;;
920;SDS011;447;51.332;6.778;2022-11-15T18:31:27;2.87;;;2.10;;
920;SDS011;447;51.332;6.778;2022-11-15T18:33:54;2.40;;;1.90;;
920;SDS011;447;51.332;6.778;2022-11-15T18:36:23;1.87;;;1.73;;
920;SDS011;447;51.332;6.778;2022-11-15T18:38:59;2.23;;;2.03;;
920;SDS011;447;51.332;6.778;2022-11-15T18:41:31;2.47;;;2.27;;
920;SDS011;447;51.332;6.778;2022-11-15T18:44:00;2.50;;;2.23;;
920;SDS011;447;51.332;6.778;2022-11-15T18:46:41;2.70;;;2.30;;
920;SDS011;447;51.332;6.778;2022-11-15T18:49:10;4.07;;;2.50;;
920;SDS011;447;51.332;6.778;2022-11-15T18:51:37;3.53;;;2.07;;
920;SDS011;447;51.332;6.778;2022-11-15T18:54:07;4.40;;;2.17;;
920;SDS011;447;51.332;6.778;2022-11-15T18:56:34;2.20;;;2.00;;
920;SDS011;447;51.332;6.778;2022-11-15T18:59:09;2.50;;;2.07;;
920;SDS011;447;51.332;6.778;2022-11-15T19:01:36;2.93;;;2.50;;
920;SDS011;447;51.332;6.778;2022-11-15T19:04:05;3.00;;;2.07;;
920;SDS011;447;51.332;6.778;2022-11-15T19:06:31;3.27;;;2.40;;
920;SDS011;447;51.332;6.778;2022-11-15T19:09:03;2.67;;;2.40;;
920;SDS011;447;51.332;6.778;2022-11-15T19:11:32;2.10;;;1.90;;
920;SDS011;447;51.332;6.778;2022-11-15T19:16:31;5.10;;;2.50;;
920;SDS011;447;51.332;6.778;2022-11-15T19:19:03;3.10;;;2.13;;
920;SDS011;447;51.332;6.778;2022-11-15T19:21:33;3.13;;;2.67;;
920;SDS011;447;51.332;6.778;2022-11-15T19:23:59;2.80;;;2.27;;
920;SDS011;447;51.332;6.778;2022-11-15T19:26:28;3.30;;;2.30;;
920;SDS011;447;51.332;6.778;2022-11-15T19:28:55;2.40;;;2.20;;
920;SDS011;447;51.332;6.778;2022-11-15T19:31:23;4.13;;;2.80;;
920;SDS011;447;51.332;6.778;2022-11-15T19:33:51;2.93;;;2.67;;
920;SDS011;447;51.332;6.778;2022-11-15T19:36:24;3.07;;;2.57;;
920;SDS011;447;51.332;6.778;2022-11-15T19:38:52;3.63;;;2.47;;